Time;durP1;ratioP1;P1;durP2;ratioP2;P2;SDS_P1;SDS_P2;PMS_P1;PMS_P2;Temp;Humidity;BMP_temperature;BMP_pressure;BME280_temperature;BME280_humidity;BME280_pressure;Samples;Min_cycle;Max_cycle;Signal;HPM_P1;HPM_P2
2022/06/10 00:00:14;;;;;;;5.70;3.83;;;10.10;99.90;;;;;;5017084;28;20203;-58
2022/06/10 00:02:43;;;;;;;6.40;3.07;;;10.10;99.90;;;;;;5026972;28;20522;-58
2022/06/10 00:05:14;;;;;;;3.23;3.03;;;10.10;99.90;;;;;;5036569;28;20419;-59
2022/06/10 00:07:41;;;;;;;4.33;2.87;;;10.00;99.90;;;;;;5030543;28;20427;-58
2022/06/10 00:10:08;;;;;;;4.43;3.10;;;9.90;99.90;;;;;;5034579;28;20517;-64
2022/06/10 00:12:33;;;;;;;4.30;3.33;;;9.90;99.90;;;;;;5029002;28;20454;-58
2022/06/10 00:14:59;;;;;;;7.23;3.10;;;9.80;99.90;;;;;;5047678;28;20464;-59
2022/06/10 00:17:25;;;;;;;4.50;3.20;;;9.80;99.90;;;;;;5035669;28;20179;-59
2022/06/10 00:19:51;;;;;;;6.50;3.30;;;9.70;99.90;;;;;;5029768;28;20269;-58
2022/06/10 00:22:16;;;;;;;4.23;3.53;;;9.70;99.90;;;;;;5033988;28;20248;-59
2022/06/10 00:24:42;;;;;;;5.83;3.60;;;9.70;99.90;;;;;;5030054;28;20183;-59
2022/06/10 00:27:08;;;;;;;7.70;3.80;;;9.70;99.90;;;;;;5018168;28;20259;-59
2022/06/10 00:29:33;;;;;;;8.30;3.00;;;9.60;99.90;;;;;;5032124;28;20263;-58
2022/06/10 00:31:59;;;;;;;4.00;3.40;;;9.60;99.90;;;;;;5039028;28;20206;-58
2022/06/10 00:34:25;;;;;;;8.13;3.97;;;9.60;99.90;;;;;;5024519;28;20180;-59
2022/06/10 00:36:51;;;;;;;5.57;3.50;;;9.60;99.90;;;;;;5036344;28;20458;-58
2022/06/10 00:39:16;;;;;;;7.13;3.90;;;9.60;99.90;;;;;;5042723;28;20805;-59
2022/06/10 00:41:44;;;;;;;3.53;2.97;;;9.60;99.90;;;;;;5037639;28;20553;-59
2022/06/10 00:44:29;;;;;;;5.60;3.40;;;9.60;99.90;;;;;;5020030;28;20674;-63
2022/06/10 00:46:55;;;;;;;7.40;3.00;;;9.60;99.90;;;;;;5036144;28;20429;-62
2022/06/10 00:49:21;;;;;;;5.67;3.07;;;9.50;99.90;;;;;;5062411;28;20430;-59
2022/06/10 00:51:53;;;;;;;7.10;3.47;;;9.50;99.90;;;;;;5067171;28;20534;-59
2022/06/10 00:54:38;;;;;;;7.27;3.23;;;9.50;99.90;;;;;;5061713;28;20164;-59
2022/06/10 00:57:19;;;;;;;5.27;3.13;;;9.50;99.90;;;;;;5040736;28;20472;-58
2022/06/10 00:59:50;;;;;;;6.37;3.27;;;9.40;99.90;;;;;;5026501;28;20438;-58
2022/06/10 01:02:22;;;;;;;7.23;3.70;;;9.40;99.90;;;;;;5027267;28;20461;-58
2022/06/10 01:04:48;;;;;;;4.33;3.43;;;9.40;99.90;;;;;;5030153;28;20434;-59
2022/06/10 01:07:24;;;;;;;5.07;3.20;;;9.40;99.90;;;;;;5024444;28;20434;-59
2022/06/10 01:09:50;;;;;;;5.43;3.33;;;9.40;99.90;;;;;;5025419;28;20190;-59
2022/06/10 01:12:41;;;;;;;8.03;3.80;;;9.30;99.90;;;;;;5034606;28;20974;-59
2022/06/10 01:15:20;;;;;;;6.73;3.40;;;9.30;99.90;;;;;;5027514;28;20438;-58
2022/06/10 01:17:56;;;;;;;5.50;3.20;;;9.30;99.90;;;;;;5024196;28;20459;-58
2022/06/10 01:20:25;;;;;;;3.60;3.10;;;9.30;99.90;;;;;;5039810;28;20502;-58
2022/06/10 01:23:09;;;;;;;6.10;3.40;;;9.30;99.90;;;;;;5025025;28;20446;-59
2022/06/10 01:26:13;;;;;;;4.23;3.27;;;9.30;99.90;;;;;;5029901;28;20414;-59
2022/06/10 01:29:26;;;;;;;5.00;3.47;;;9.20;99.90;;;;;;5034130;28;20433;-59
2022/06/10 01:32:07;;;;;;;3.93;3.10;;;9.20;99.90;;;;;;4948227;29;20553;-59
2022/06/10 01:34:50;;;;;;;5.30;3.10;;;9.30;99.90;;;;;;5028544;28;20865;-58
2022/06/10 01:37:25;;;;;;;5.63;3.80;;;9.30;99.90;;;;;;5014838;28;20668;-59
2022/06/10 01:39:54;;;;;;;5.73;3.30;;;9.30;99.90;;;;;;5033450;28;20439;-58
2022/06/10 01:42:36;;;;;;;3.40;3.10;;;9.20;99.90;;;;;;5028405;28;20438;-59
2022/06/10 01:45:09;;;;;;;9.37;3.03;;;9.20;99.90;;;;;;5022622;28;20445;-59
2022/06/10 01:47:40;;;;;;;7.73;3.07;;;9.20;99.90;;;;;;5036279;28;20442;-59
2022/06/10 01:50:31;;;;;;;5.17;2.90;;;9.10;99.90;;;;;;5028599;28;20431;-58
2022/06/10 01:53:34;;;;;;;3.00;2.70;;;9.10;99.90;;;;;;5019428;28;20445;-59
2022/06/10 01:56:12;;;;;;;4.57;3.07;;;9.10;99.90;;;;;;5027439;28;20426;-58
2022/06/10 01:58:52;;;;;;;9.00;3.10;;;9.10;99.90;;;;;;5011606;28;20422;-58
2022/06/10 02:01:36;;;;;;;8.67;3.50;;;9.10;99.90;;;;;;5022421;28;20519;-58
2022/06/10 02:04:13;;;;;;;9.60;3.13;;;9.10;99.90;;;;;;5036573;28;20811;-58
2022/06/10 02:06:47;;;;;;;6.37;3.50;;;9.10;99.90;;;;;;5034758;28;21005;-59
2022/06/10 02:09:21;;;;;;;5.67;3.40;;;9.10;99.90;;;;;;5049078;28;20477;-59
2022/06/10 02:11:54;;;;;;;3.37;2.97;;;9.10;99.90;;;;;;5062290;28;20499;-59
2022/06/10 02:14:26;;;;;;;5.73;3.33;;;9.10;99.90;;;;;;5052071;28;21036;-58
2022/06/10 02:16:53;;;;;;;15.80;4.60;;;9.10;99.90;;;;;;5048131;28;20485;-59
2022/06/10 02:19:35;;;;;;;13.13;5.33;;;9.10;99.90;;;;;;5045223;28;20442;-59
2022/06/10 02:22:10;;;;;;;7.47;4.60;;;9.20;99.90;;;;;;5042936;28;20473;-58
2022/06/10 02:24:43;;;;;;;14.10;6.03;;;9.20;99.90;;;;;;5033182;28;20448;-59
2022/06/10 02:27:20;;;;;;;31.67;6.80;;;9.30;99.90;;;;;;5030970;28;20477;-58
2022/06/10 02:29:55;;;;;;;14.73;6.30;;;9.30;99.90;;;;;;5024888;28;20476;-59
2022/06/10 02:32:23;;;;;;;10.30;5.30;;;9.30;99.90;;;;;;5032470;28;20449;-58
2022/06/10 02:34:48;;;;;;;39.57;6.53;;;9.30;99.90;;;;;;5028792;28;20421;-59
2022/06/10 02:37:24;;;;;;;10.67;5.53;;;9.30;99.90;;;;;;5029040;28;20391;-59
2022/06/10 02:39:53;;;;;;;8.50;5.30;;;9.30;99.90;;;;;;5024948;28;20178;-59
2022/06/10 02:42:18;;;;;;;16.77;5.83;;;9.30;99.90;;;;;;5027005;28;21033;-59
2022/06/10 02:45:23;;;;;;;8.43;5.90;;;9.30;99.90;;;;;;5026374;28;20469;-59
2022/06/10 02:48:07;;;;;;;10.67;5.40;;;9.30;99.90;;;;;;5025403;28;20176;-58
2022/06/10 02:50:32;;;;;;;8.03;5.00;;;9.30;99.90;;;;;;5054924;28;20463;-59
2022/06/10 02:52:59;;;;;;;6.40;4.30;;;9.30;99.90;;;;;;5060006;28;20449;-59
2022/06/10 02:55:26;;;;;;;10.40;4.97;;;9.30;99.90;;;;;;5036239;28;20183;-59
2022/06/10 03:01:14;;;;;;;26.13;6.43;;;9.30;99.90;;;;;;5027079;28;20519;-58
2022/06/10 03:04:13;;;;;;;19.63;6.87;;;9.30;99.90;;;;;;5021145;28;20430;-58
2022/06/10 03:06:47;;;;;;;25.80;6.33;;;9.30;99.90;;;;;;4944211;28;20525;-59
2022/06/10 03:09:33;;;;;;;57.63;8.43;;;9.30;99.90;;;;;;4996509;28;20432;-59
2022/06/10 03:12:39;;;;;;;19.07;7.17;;;9.20;99.90;;;;;;5035132;28;20450;-59
2022/06/10 03:15:32;;;;;;;39.83;11.00;;;9.10;99.90;;;;;;5015820;28;20446;-59
2022/06/10 03:18:22;;;;;;;50.43;9.83;;;9.10;99.90;;;;;;5026491;28;20542;-58
2022/06/10 03:21:23;;;;;;;32.83;9.57;;;9.10;99.90;;;;;;5027982;28;20489;-58
2022/06/10 03:24:13;;;;;;;29.77;11.00;;;9.10;99.90;;;;;;5028897;28;20766;-58
2022/06/10 03:26:45;;;;;;;25.33;9.93;;;9.10;99.90;;;;;;5019112;28;20442;-59
2022/06/10 03:29:39;;;;;;;21.73;8.10;;;9.10;99.90;;;;;;5032283;28;20431;-59
2022/06/10 03:32:12;;;;;;;13.03;6.30;;;9.10;99.90;;;;;;5032819;28;20797;-59
2022/06/10 03:34:46;;;;;;;21.07;8.73;;;9.10;99.90;;;;;;5036734;28;20415;-58
2022/06/10 03:37:13;;;;;;;36.93;9.33;;;9.10;99.90;;;;;;5050507;28;21526;-58
2022/06/10 03:39:41;;;;;;;94.03;11.30;;;9.10;99.90;;;;;;5023863;28;20445;-58
2022/06/10 03:42:11;;;;;;;31.63;10.50;;;9.10;99.90;;;;;;5039316;28;20535;-59
2022/06/10 03:44:38;;;;;;;29.60;12.20;;;9.10;99.90;;;;;;5015631;28;20437;-59
2022/06/10 03:47:06;;;;;;;34.10;13.13;;;9.10;99.90;;;;;;5030472;28;20418;-59
2022/06/10 03:49:41;;;;;;;28.17;13.00;;;9.10;99.90;;;;;;5024862;28;20434;-59
2022/06/10 03:52:08;;;;;;;35.27;12.90;;;9.20;99.90;;;;;;5037191;28;20493;-59
2022/06/10 03:54:34;;;;;;;38.60;14.50;;;9.20;99.90;;;;;;5046398;28;20438;-58
2022/06/10 03:56:59;;;;;;;34.00;12.90;;;9.20;99.90;;;;;;5031669;28;20537;-59
2022/06/10 03:59:25;;;;;;;36.80;12.40;;;9.20;99.90;;;;;;5052076;28;20203;-59
2022/06/10 04:01:50;;;;;;;44.17;20.10;;;9.20;99.90;;;;;;5042962;28;20219;-59
2022/06/10 04:04:16;;;;;;;46.47;18.77;;;9.30;99.90;;;;;;5042352;28;20210;-59
2022/06/10 04:06:42;;;;;;;32.73;14.60;;;9.20;99.90;;;;;;5038258;28;20267;-59
2022/06/10 04:09:09;;;;;;;30.87;12.90;;;9.20;99.90;;;;;;5029141;28;20179;-58
2022/06/10 04:11:34;;;;;;;14.80;7.70;;;9.30;99.90;;;;;;5031040;28;20196;-59
2022/06/10 04:14:00;;;;;;;11.93;6.40;;;9.20;99.90;;;;;;5028888;28;20988;-59
2022/06/10 04:16:29;;;;;;;24.23;5.77;;;9.30;99.90;;;;;;5031190;28;20176;-59
2022/06/10 04:18:55;;;;;;;12.50;5.77;;;9.30;99.90;;;;;;5021592;28;20183;-59
2022/06/10 04:21:20;;;;;;;9.03;5.80;;;9.30;99.90;;;;;;5020876;28;21231;-59
2022/06/10 04:23:46;;;;;;;10.97;6.33;;;9.20;99.90;;;;;;5025168;28;20184;-59
2022/06/10 04:26:12;;;;;;;12.30;6.50;;;9.20;99.90;;;;;;5000643;28;20732;-58
2022/06/10 04:28:37;;;;;;;13.03;6.47;;;9.30;99.90;;;;;;5024856;28;20222;-58
2022/06/10 04:31:03;;;;;;;18.97;5.73;;;9.30;99.90;;;;;;5019422;28;20306;-58
2022/06/10 04:33:29;;;;;;;18.10;6.20;;;9.30;99.90;;;;;;5019383;28;20234;-59
2022/06/10 04:35:54;;;;;;;11.53;6.47;;;9.30;99.90;;;;;;5023108;28;20475;-60
2022/06/10 04:38:22;;;;;;;8.67;4.87;;;9.30;99.90;;;;;;5004218;28;20274;-59
2022/06/10 04:40:48;;;;;;;7.90;5.90;;;9.30;99.90;;;;;;5017356;28;20218;-60
2022/06/10 04:43:15;;;;;;;11.30;5.87;;;9.30;99.90;;;;;;5022124;28;20435;-59
2022/06/10 04:45:53;;;;;;;23.80;6.17;;;9.40;99.90;;;;;;5009158;28;20442;-59
2022/06/10 04:48:19;;;;;;;16.90;6.90;;;9.40;99.90;;;;;;5022801;28;20492;-59
2022/06/10 04:50:47;;;;;;;23.47;6.83;;;9.30;99.90;;;;;;5022425;28;20951;-60
2022/06/10 04:53:13;;;;;;;33.77;7.37;;;9.30;99.90;;;;;;5022731;28;20222;-59
2022/06/10 04:55:39;;;;;;;15.93;6.63;;;9.30;99.90;;;;;;5026367;28;20516;-60
2022/06/10 04:58:06;;;;;;;37.17;8.10;;;9.30;99.90;;;;;;5027109;28;20596;-59
2022/06/10 05:00:37;;;;;;;11.40;6.50;;;9.30;99.90;;;;;;5023504;28;20227;-60
2022/06/10 05:03:03;;;;;;;15.20;7.20;;;9.30;99.90;;;;;;5015819;28;20438;-60
2022/06/10 05:05:30;;;;;;;17.70;6.87;;;9.30;99.90;;;;;;5019594;28;20431;-60
2022/06/10 05:07:56;;;;;;;64.43;9.77;;;9.40;99.90;;;;;;5022820;28;20932;-60
2022/06/10 05:10:22;;;;;;;109.87;10.93;;;9.40;99.90;;;;;;5022195;28;20434;-60
2022/06/10 05:12:48;;;;;;;16.57;7.70;;;9.40;99.90;;;;;;5020797;28;20944;-60
2022/06/10 05:15:16;;;;;;;20.33;9.40;;;9.40;99.90;;;;;;5005082;28;20179;-59
2022/06/10 05:17:42;;;;;;;22.30;11.10;;;9.40;99.90;;;;;;5002430;28;20772;-58
2022/06/10 05:20:11;;;;;;;44.27;8.57;;;9.50;99.90;;;;;;4999190;28;20442;-59
2022/06/10 05:22:37;;;;;;;46.37;8.23;;;9.50;99.90;;;;;;5020639;28;20824;-59
2022/06/10 05:25:03;;;;;;;30.70;8.97;;;9.50;99.90;;;;;;5021176;28;20429;-60
2022/06/10 05:27:28;;;;;;;15.33;8.30;;;9.50;99.90;;;;;;5018450;28;20176;-60
2022/06/10 05:29:54;;;;;;;23.90;9.83;;;9.50;99.90;;;;;;5018612;28;20964;-59
2022/06/10 05:32:19;;;;;;;18.00;9.43;;;9.60;99.90;;;;;;5019630;28;20200;-59
2022/06/10 05:34:48;;;;;;;20.70;10.20;;;9.70;99.90;;;;;;5018409;28;20183;-59
2022/06/10 05:37:20;;;;;;;16.50;8.07;;;9.70;99.90;;;;;;5022480;28;20183;-59
2022/06/10 05:39:46;;;;;;;13.53;8.20;;;9.80;99.90;;;;;;5027998;28;20429;-59
2022/06/10 05:44:45;;;;;;;22.87;9.70;;;9.80;99.90;;;;;;5005466;28;20224;-60
2022/06/10 05:47:27;;;;;;;19.90;9.80;;;9.80;99.90;;;;;;4991082;28;20430;-59
2022/06/10 05:49:56;;;;;;;46.53;13.23;;;9.90;99.90;;;;;;5003676;28;20438;-61
2022/06/10 05:52:29;;;;;;;31.60;13.47;;;9.90;99.90;;;;;;5001852;28;20431;-60
2022/06/10 05:54:57;;;;;;;37.83;16.43;;;9.90;99.90;;;;;;5003442;28;20451;-60
2022/06/10 05:57:24;;;;;;;41.50;15.40;;;10.00;99.90;;;;;;5001308;28;20465;-60
2022/06/10 05:59:52;;;;;;;38.40;16.43;;;9.90;99.90;;;;;;5005179;28;20461;-60
2022/06/10 06:02:19;;;;;;;37.93;15.80;;;9.90;99.90;;;;;;4982604;28;20459;-59
2022/06/10 06:04:45;;;;;;;33.37;15.93;;;10.00;99.90;;;;;;4988031;28;20431;-59
2022/06/10 06:07:17;;;;;;;27.27;12.07;;;10.00;99.90;;;;;;5002922;28;20431;-61
2022/06/10 06:09:43;;;;;;;33.73;14.17;;;10.10;99.90;;;;;;5006069;28;20508;-61
2022/06/10 06:12:10;;;;;;;32.17;14.50;;;10.20;99.90;;;;;;5003066;28;20981;-61
2022/06/10 06:14:35;;;;;;;36.47;15.10;;;10.30;99.90;;;;;;5000052;28;21859;-60
2022/06/10 06:17:03;;;;;;;32.63;13.50;;;10.30;99.90;;;;;;5000587;28;21448;-60
2022/06/10 06:19:30;;;;;;;45.20;15.17;;;10.50;99.90;;;;;;4981030;28;20971;-59
2022/06/10 06:21:56;;;;;;;35.43;15.33;;;10.60;99.90;;;;;;5001035;28;20463;-57
2022/06/10 06:24:22;;;;;;;35.43;14.00;;;10.80;99.90;;;;;;5001960;28;20692;-60
2022/06/10 06:26:49;;;;;;;37.53;14.10;;;10.90;99.90;;;;;;5009040;28;20976;-60
2022/06/10 06:29:15;;;;;;;33.83;12.20;;;11.00;99.90;;;;;;5005440;28;20506;-60
2022/06/10 06:31:41;;;;;;;28.93;12.57;;;11.10;99.90;;;;;;5002624;28;20439;-59
2022/06/10 06:34:06;;;;;;;31.53;12.53;;;11.20;99.90;;;;;;5000314;28;20800;-65
2022/06/10 06:36:39;;;;;;;24.40;13.20;;;11.30;99.90;;;;;;5004286;28;20442;-60
2022/06/10 06:39:06;;;;;;;33.13;12.93;;;11.40;99.90;;;;;;5014092;28;20275;-60
2022/06/10 06:41:32;;;;;;;33.10;11.90;;;11.40;99.90;;;;;;5006039;28;22507;-60
2022/06/10 06:43:58;;;;;;;25.63;12.50;;;11.60;99.90;;;;;;5009732;28;20556;-60
2022/06/10 06:46:23;;;;;;;24.63;12.40;;;11.70;99.90;;;;;;5010885;28;20436;-60
2022/06/10 06:48:50;;;;;;;30.93;13.77;;;11.80;99.90;;;;;;5004682;28;20291;-60
2022/06/10 06:51:16;;;;;;;32.40;12.27;;;11.90;99.90;;;;;;5005424;28;20279;-60
2022/06/10 06:53:41;;;;;;;33.13;13.40;;;12.10;99.90;;;;;;5002612;28;20458;-59
2022/06/10 06:56:08;;;;;;;27.43;12.50;;;12.20;99.90;;;;;;5003580;28;20423;-60
2022/06/10 06:58:34;;;;;;;29.80;11.90;;;12.30;99.90;;;;;;5002555;28;20697;-58
2022/06/10 07:01:00;;;;;;;24.77;11.60;;;12.50;99.90;;;;;;5002347;28;20467;-60
2022/06/10 07:03:26;;;;;;;29.53;12.27;;;12.60;99.90;;;;;;5004560;28;20275;-60
2022/06/10 07:05:52;;;;;;;26.13;11.37;;;12.80;99.90;;;;;;5005373;28;21035;-61
2022/06/10 07:08:19;;;;;;;26.60;10.83;;;13.00;99.90;;;;;;5004885;28;20215;-60
2022/06/10 07:10:45;;;;;;;24.70;11.50;;;13.10;99.90;;;;;;5005807;28;20435;-60
2022/06/10 07:13:12;;;;;;;25.33;11.97;;;13.20;99.90;;;;;;5003634;28;20843;-60
2022/06/10 07:15:39;;;;;;;24.90;10.53;;;13.30;99.90;;;;;;5005942;28;20180;-60
2022/06/10 07:18:05;;;;;;;22.27;9.20;;;13.40;99.90;;;;;;5004294;28;20517;-61
2022/06/10 07:20:33;;;;;;;18.27;9.43;;;13.50;99.90;;;;;;5003108;28;20462;-60
2022/06/10 07:22:59;;;;;;;21.53;9.33;;;13.60;99.90;;;;;;4993678;28;20458;-60
2022/06/10 07:25:27;;;;;;;19.03;8.70;;;13.70;99.90;;;;;;5003754;28;20427;-60
2022/06/10 07:27:53;;;;;;;15.73;8.27;;;13.90;99.90;;;;;;5002188;28;20442;-61
2022/06/10 07:30:25;;;;;;;13.53;7.63;;;14.00;99.90;;;;;;5004529;28;20800;-55
2022/06/10 07:32:51;;;;;;;14.20;7.27;;;14.20;99.90;;;;;;5003213;28;20201;-58
2022/06/10 07:35:18;;;;;;;11.20;6.30;;;14.30;99.90;;;;;;5000918;28;20431;-56
2022/06/10 07:37:45;;;;;;;10.40;5.43;;;14.40;99.90;;;;;;5001244;28;20442;-56
2022/06/10 07:43:08;;;;;;;13.83;4.77;;;14.70;99.90;;;;;;5003979;28;21258;-59
2022/06/10 07:45:34;;;;;;;11.20;5.60;;;14.90;99.90;;;;;;5005050;28;20424;-59
2022/06/10 07:47:59;;;;;;;12.03;5.00;;;15.10;99.90;;;;;;5002684;28;20235;-60
2022/06/10 07:50:25;;;;;;;14.33;4.67;;;15.30;99.90;;;;;;5003804;28;20275;-59
2022/06/10 07:52:51;;;;;;;6.40;2.87;;;15.40;99.90;;;;;;4990059;28;20231;-61
2022/06/10 07:55:18;;;;;;;11.83;4.83;;;15.60;97.60;;;;;;5003910;28;20718;-60
2022/06/10 07:57:43;;;;;;;8.03;3.10;;;15.80;94.40;;;;;;5001688;28;21450;-56
2022/06/10 08:00:10;;;;;;;4.43;2.43;;;15.90;91.30;;;;;;4997540;28;20503;-56
2022/06/10 08:02:37;;;;;;;8.10;2.60;;;16.00;81.80;;;;;;4983760;28;20574;-55
2022/06/10 08:05:04;;;;;;;6.17;2.60;;;16.10;75.10;;;;;;5003142;28;20944;-55
2022/06/10 08:07:30;;;;;;;5.07;2.13;;;16.20;70.60;;;;;;4999671;28;20435;-55
2022/06/10 08:09:56;;;;;;;9.30;3.30;;;16.30;68.90;;;;;;4996924;28;20498;-55
2022/06/10 08:12:22;;;;;;;9.73;2.53;;;16.40;70.20;;;;;;4999067;28;20181;-57
2022/06/10 08:14:48;;;;;;;8.97;2.83;;;16.50;68.50;;;;;;5000185;28;20948;-59
2022/06/10 08:17:14;;;;;;;3.60;2.37;;;16.40;64.30;;;;;;4996958;28;20180;-59
2022/06/10 08:19:40;;;;;;;3.47;2.70;;;16.30;66.10;;;;;;4997766;28;20182;-60
2022/06/10 08:24:50;;;;;;;12.30;3.20;;;16.20;69.10;;;;;;5002514;28;20207;-59
2022/06/10 08:27:16;;;;;;;9.13;2.90;;;16.30;71.00;;;;;;4998045;28;21146;-60
2022/06/10 08:29:41;;;;;;;6.60;3.20;;;16.40;70.00;;;;;;5003514;28;20169;-60
2022/06/10 08:32:07;;;;;;;5.90;2.50;;;16.50;68.60;;;;;;5005717;28;20757;-61
2022/06/10 08:34:33;;;;;;;10.13;2.60;;;16.40;67.00;;;;;;4980415;28;20207;-61
2022/06/10 08:37:01;;;;;;;8.40;2.97;;;16.40;66.40;;;;;;4999880;28;20432;-59
2022/06/10 08:39:28;;;;;;;11.50;3.17;;;16.30;67.50;;;;;;5000534;28;20180;-61
2022/06/10 08:42:24;;;;;;;6.70;2.73;;;16.40;68.20;;;;;;5000446;28;20466;-60
2022/06/10 08:44:55;;;;;;;7.50;2.63;;;16.50;68.20;;;;;;4999023;28;21089;-60
2022/06/10 08:48:01;;;;;;;9.87;2.87;;;16.70;67.30;;;;;;5004793;28;20498;-60
2022/06/10 08:51:14;;;;;;;3.70;2.30;;;17.00;66.30;;;;;;4973690;28;20945;-59
2022/06/10 08:53:51;;;;;;;13.97;2.23;;;17.20;65.20;;;;;;4940813;28;20521;-58
2022/06/10 08:56:40;;;;;;;5.97;2.20;;;17.50;64.30;;;;;;4939277;28;20437;-60
2022/06/10 08:59:08;;;;;;;6.23;2.40;;;17.60;63.80;;;;;;4987069;28;21231;-59
2022/06/10 09:01:52;;;;;;;4.93;2.10;;;17.80;62.90;;;;;;4999032;28;20459;-60
2022/06/10 09:04:44;;;;;;;9.60;2.70;;;17.90;61.70;;;;;;4995962;28;20891;-59
2022/06/10 09:07:41;;;;;;;5.50;2.50;;;18.00;60.90;;;;;;5004357;28;20839;-61
2022/06/10 09:10:19;;;;;;;5.30;2.40;;;18.10;61.10;;;;;;5000121;28;20475;-62
2022/06/10 09:13:09;;;;;;;6.57;1.93;;;18.20;60.70;;;;;;4984683;28;20447;-60
2022/06/10 09:15:44;;;;;;;32.53;12.77;;;18.30;59.40;;;;;;5001543;28;20455;-60
2022/06/10 09:18:23;;;;;;;16.37;7.53;;;18.20;58.90;;;;;;5007079;28;20530;-60
2022/06/10 09:21:05;;;;;;;14.30;7.80;;;18.10;59.40;;;;;;4997204;28;20489;-58
2022/06/10 09:23:38;;;;;;;14.70;5.63;;;18.20;59.90;;;;;;4982080;28;20486;-58
2022/06/10 09:26:10;;;;;;;10.10;6.80;;;18.40;59.70;;;;;;4998604;28;20430;-58
2022/06/10 09:28:37;;;;;;;9.33;3.27;;;18.50;58.20;;;;;;5000910;28;20434;-58
2022/06/10 09:31:41;;;;;;;54.77;28.20;;;18.40;57.50;;;;;;5002879;28;20436;-56
2022/06/10 09:34:26;;;;;;;16.87;8.17;;;18.30;58.10;;;;;;4990307;28;20467;-56
2022/06/10 09:37:12;;;;;;;22.67;13.03;;;18.30;57.60;;;;;;5001516;28;20497;-57
2022/06/10 09:43:06;;;;;;;19.23;9.37;;;18.30;57.10;;;;;;4996100;28;21282;-58
2022/06/10 09:45:38;;;;;;;5.30;2.40;;;18.20;56.40;;;;;;5003573;28;20448;-59
2022/06/10 09:48:09;;;;;;;7.83;2.37;;;18.10;56.40;;;;;;4987618;28;20439;-59
2022/06/10 09:50:45;;;;;;;7.63;2.50;;;17.90;55.80;;;;;;4999736;28;20431;-59
2022/06/10 09:53:28;;;;;;;7.63;2.70;;;17.80;55.20;;;;;;5000452;28;20508;-59
2022/06/10 09:56:12;;;;;;;4.57;2.07;;;17.70;56.10;;;;;;5004226;28;20450;-59
2022/06/10 09:59:09;;;;;;;6.20;2.60;;;17.60;56.60;;;;;;5002769;28;20533;-58
2022/06/10 10:01:47;;;;;;;4.60;1.77;;;17.60;57.20;;;;;;5000478;28;20499;-57
2022/06/10 10:04:19;;;;;;;4.53;2.90;;;17.60;58.20;;;;;;4999714;28;20451;-58
2022/06/10 10:07:03;;;;;;;5.30;2.33;;;17.70;59.00;;;;;;5001967;28;20482;-58
2022/06/10 10:09:38;;;;;;;5.43;2.17;;;17.90;57.30;;;;;;5003610;28;20435;-58
2022/06/10 10:12:24;;;;;;;7.70;2.40;;;18.20;56.40;;;;;;5002580;28;20442;-58
2022/06/10 10:15:11;;;;;;;9.10;2.07;;;18.40;56.70;;;;;;4995829;28;20432;-62
2022/06/10 10:17:48;;;;;;;8.17;1.90;;;18.70;56.60;;;;;;4996753;28;20463;-61
2022/06/10 10:20:24;;;;;;;4.70;2.07;;;19.10;55.00;;;;;;5002498;28;20435;-60
2022/06/10 10:23:09;;;;;;;4.00;1.80;;;19.40;54.80;;;;;;4990712;28;20490;-59
2022/06/10 10:25:36;;;;;;;6.33;1.87;;;19.80;55.10;;;;;;4994528;28;20887;-60
2022/06/10 10:28:14;;;;;;;5.10;1.90;;;20.10;54.60;;;;;;4982524;28;20501;-60
2022/06/10 10:31:08;;;;;;;5.83;1.63;;;20.40;53.90;;;;;;4997456;28;20493;-59
2022/06/10 10:33:34;;;;;;;4.53;1.60;;;20.50;52.20;;;;;;5006303;28;21014;-60
2022/06/10 10:36:03;;;;;;;5.97;1.57;;;20.30;51.70;;;;;;5009418;28;20518;-59
2022/06/10 10:38:32;;;;;;;4.17;1.53;;;20.00;51.40;;;;;;5014411;28;20442;-59
2022/06/10 10:40:58;;;;;;;3.53;1.60;;;19.70;52.20;;;;;;5000195;28;20459;-60
2022/06/10 10:43:30;;;;;;;5.13;1.77;;;19.40;51.80;;;;;;5016542;28;20730;-59
2022/06/10 10:46:03;;;;;;;3.50;1.63;;;19.30;52.20;;;;;;5009705;28;20828;-60
2022/06/10 10:48:43;;;;;;;6.00;1.93;;;19.20;50.70;;;;;;5014362;28;20430;-60
2022/06/10 10:51:12;;;;;;;2.77;1.57;;;19.10;51.00;;;;;;5003265;28;20934;-59
2022/06/10 10:53:56;;;;;;;6.00;1.80;;;19.20;52.10;;;;;;5008710;28;20458;-59
2022/06/10 10:56:37;;;;;;;5.67;2.03;;;19.30;52.10;;;;;;5017724;28;20470;-60
2022/06/10 10:59:04;;;;;;;6.27;2.00;;;19.50;51.70;;;;;;5017161;28;20418;-59
2022/06/10 11:01:50;;;;;;;6.97;1.60;;;19.50;51.40;;;;;;5012362;28;20581;-59
2022/06/10 11:04:36;;;;;;;4.00;1.60;;;19.40;51.40;;;;;;5004452;28;20998;-59
2022/06/10 11:07:13;;;;;;;4.90;2.20;;;19.20;52.00;;;;;;5005138;28;21006;-59
2022/06/10 11:09:52;;;;;;;4.80;1.70;;;19.10;52.10;;;;;;5023509;28;20506;-59
2022/06/10 11:12:21;;;;;;;4.63;1.80;;;19.00;52.20;;;;;;4989853;28;20447;-58
2022/06/10 11:15:11;;;;;;;7.60;1.70;;;18.80;52.60;;;;;;4999539;28;20800;-59
2022/06/10 11:17:37;;;;;;;3.17;1.90;;;18.70;52.50;;;;;;5007081;28;21015;-59
2022/06/10 11:20:15;;;;;;;3.73;1.60;;;18.80;53.60;;;;;;5017054;28;20438;-60
2022/06/10 11:22:43;;;;;;;2.33;1.50;;;19.20;54.40;;;;;;4994384;28;20516;-60
2022/06/10 11:25:14;;;;;;;2.93;1.43;;;19.60;53.50;;;;;;5021959;28;20793;-60
2022/06/10 11:27:57;;;;;;;3.80;1.70;;;20.00;51.90;;;;;;5009460;28;20510;-59
2022/06/10 11:30:32;;;;;;;4.83;1.57;;;20.40;49.70;;;;;;5011147;28;20442;-60
2022/06/10 11:33:02;;;;;;;3.50;1.47;;;20.80;47.90;;;;;;5013063;28;20838;-60
2022/06/10 11:35:40;;;;;;;2.27;1.50;;;20.90;47.70;;;;;;5027583;28;20452;-59
2022/06/10 11:38:16;;;;;;;3.50;1.70;;;20.70;47.40;;;;;;5014098;28;20456;-59
2022/06/10 11:40:48;;;;;;;4.30;1.63;;;20.50;48.10;;;;;;5031919;28;20450;-59
2022/06/10 11:43:39;;;;;;;2.00;1.33;;;20.20;47.20;;;;;;5010950;28;20454;-59
2022/06/10 11:46:15;;;;;;;2.03;1.23;;;19.90;47.30;;;;;;5009314;28;20454;-59
2022/06/10 11:49:03;;;;;;;2.00;1.53;;;19.90;49.20;;;;;;5011309;28;20427;-58
2022/06/10 11:51:41;;;;;;;2.57;1.37;;;20.30;49.90;;;;;;5007851;28;20517;-59
2022/06/10 11:54:31;;;;;;;2.73;1.80;;;20.80;49.60;;;;;;5009285;28;20458;-59
2022/06/10 12:00:20;;;;;;;5.67;1.60;;;21.60;46.80;;;;;;5007251;28;20629;-59
2022/06/10 12:02:49;;;;;;;4.10;1.60;;;21.50;44.70;;;;;;5009172;28;20462;-60
2022/06/10 12:05:18;;;;;;;4.40;1.40;;;21.30;46.30;;;;;;5014733;28;20430;-60
2022/06/10 12:07:53;;;;;;;4.93;1.50;;;21.00;47.20;;;;;;5007130;28;20449;-59
2022/06/10 12:10:25;;;;;;;4.30;1.30;;;21.20;49.10;;;;;;5018219;28;20435;-59
2022/06/10 12:12:53;;;;;;;1.70;1.50;;;21.70;49.30;;;;;;5006298;28;21214;-61
2022/06/10 12:15:32;;;;;;;2.63;1.50;;;21.80;47.10;;;;;;5006431;28;20435;-60
2022/06/10 12:18:03;;;;;;;1.70;1.50;;;21.60;46.80;;;;;;5017318;28;20421;-59
2022/06/10 12:20:43;;;;;;;1.90;1.30;;;21.40;46.30;;;;;;4991809;28;20506;-59
2022/06/10 12:23:18;;;;;;;2.53;1.63;;;21.30;47.40;;;;;;5005576;28;20462;-60
2022/06/10 12:26:15;;;;;;;1.57;1.37;;;21.60;49.00;;;;;;5010326;28;20424;-60
2022/06/10 12:28:43;;;;;;;3.17;1.60;;;21.80;47.60;;;;;;5011664;28;20395;-60
2022/06/10 12:31:18;;;;;;;3.93;1.90;;;21.70;46.50;;;;;;5006706;28;20463;-60
2022/06/10 12:33:46;;;;;;;1.30;1.20;;;21.50;45.90;;;;;;5021931;28;20809;-59
2022/06/10 12:36:19;;;;;;;2.60;1.47;;;21.30;46.00;;;;;;5008751;28;20463;-60
2022/06/10 12:38:49;;;;;;;4.83;1.67;;;21.10;46.30;;;;;;5013777;28;20431;-60
2022/06/10 12:41:20;;;;;;;3.70;1.60;;;21.00;47.20;;;;;;5007017;28;20459;-60
2022/06/10 12:44:08;;;;;;;1.83;1.20;;;21.00;48.10;;;;;;5029995;28;20446;-60
2022/06/10 12:46:44;;;;;;;4.10;1.30;;;21.30;48.90;;;;;;4989902;28;20966;-60
2022/06/10 12:49:38;;;;;;;4.43;1.40;;;21.30;47.50;;;;;;5011320;28;20434;-59
2022/06/10 12:52:26;;;;;;;1.50;1.40;;;21.20;46.20;;;;;;5004901;28;20490;-60
2022/06/10 12:55:03;;;;;;;1.90;1.40;;;21.10;46.90;;;;;;5004536;28;20566;-60
2022/06/10 12:57:44;;;;;;;2.40;1.13;;;21.00;47.50;;;;;;5008404;28;20431;-60
2022/06/10 13:00:18;;;;;;;1.87;1.30;;;21.20;47.80;;;;;;5007440;28;20427;-61
2022/06/10 13:02:46;;;;;;;4.17;1.80;;;21.30;46.70;;;;;;5008610;28;20446;-59
2022/06/10 13:05:27;;;;;;;2.27;1.30;;;21.30;45.70;;;;;;4993593;28;20665;-60
2022/06/10 13:07:56;;;;;;;2.00;1.13;;;21.30;45.90;;;;;;5021109;28;20442;-59
2022/06/10 13:10:28;;;;;;;3.97;1.47;;;21.20;46.80;;;;;;5024049;28;20419;-60
2022/06/10 13:12:58;;;;;;;2.93;1.40;;;21.10;47.00;;;;;;5007349;28;20466;-60
2022/06/10 13:15:29;;;;;;;1.40;1.20;;;21.10;48.10;;;;;;5008235;28;20442;-60
2022/06/10 13:18:17;;;;;;;3.90;1.23;;;21.40;48.90;;;;;;5014095;28;20893;-60
2022/06/10 13:20:45;;;;;;;2.23;1.30;;;22.10;47.80;;;;;;5013888;28;20466;-60
2022/06/10 13:23:11;;;;;;;2.60;1.30;;;22.30;46.70;;;;;;5011507;28;20455;-59
2022/06/10 13:25:37;;;;;;;5.07;1.70;;;22.30;46.40;;;;;;5019431;28;20439;-60
2022/06/10 13:28:12;;;;;;;1.03;1.00;;;22.00;46.20;;;;;;5029858;28;20167;-60
2022/06/10 13:30:38;;;;;;;6.60;1.63;;;21.70;45.60;;;;;;5027974;28;20965;-61
2022/06/10 13:33:11;;;;;;;2.20;1.57;;;21.50;46.50;;;;;;5014739;28;20450;-61